Dades meteomassalio
Diari Summary for Setembre 7, 2017 Units:  Metric    English   Both
« Previous Day
Next Day »
Diari Semanal Mensual Anual Personalitzat
  Maxima: Minima: Mijana:
Temperatura: 25.6 °C 13.3 °C 19.6 °C
Rosada: 11.7 °C 6.1 °C 9.5 °C
Humitat: 71 % 34 % 54 %
Velocitat del vent: 37.0 km/h 0.0 km/h 20.8 km/h
Racha vent: 37.0 km/h - -
Vent:- - SSW
Pressio: 1023.6 hPa 1017.2 hPa -
Pluja: 0.0 mm    
Historical Graphs
 
 
Tabular Data for Setembre 7, 2017
Time Temperature Dew Point Pressure Wind Wind Speed Wind Gust Humidity Rainfall Rate (Hourly) solar Conditions
00:02 18.9 °C 10.7 °C 1023.2 hPa SW 20.4 km/h 20.4 km/h 59 % 0.0 mm 0.0 W/m2 CLR
00:07 18.9 °C 10.7 °C 1023.2 hPa SW 31.5 km/h 31.5 km/h 59 % 0.0 mm 0.0 W/m2 CLR
00:12 18.3 °C 10.4 °C 1023.2 hPa South 18.5 km/h 18.5 km/h 60 % 0.0 mm 0.0 W/m2 CLR
00:13 18.3 °C 10.4 °C 1023.2 hPa SW 22.2 km/h 22.2 km/h 60 % 0.0 mm 0.0 W/m2 CLR
00:17 18.3 °C 10.4 °C 1023.2 hPa SSW 18.5 km/h 18.5 km/h 60 % 0.0 mm 0.0 W/m2 CLR
00:22 18.3 °C 10.4 °C 1023.6 hPa SW 27.8 km/h 27.8 km/h 60 % 0.0 mm 0.0 W/m2 CLR
00:27 18.3 °C 10.4 °C 1023.6 hPa SSW 25.9 km/h 25.9 km/h 60 % 0.0 mm 0.0 W/m2 CLR
00:32 18.3 °C 10.7 °C 1023.6 hPa WSW 24.1 km/h 24.1 km/h 61 % 0.0 mm 0.0 W/m2 CLR
00:37 18.3 °C 10.7 °C 1023.6 hPa SSW 16.7 km/h 16.7 km/h 61 % 0.0 mm 0.0 W/m2 CLR
00:42 18.3 °C 10.7 °C 1023.6 hPa SSW 25.7 km/h 25.7 km/h 61 % 0.0 mm 0.0 W/m2 CLR
00:47 18.3 °C 10.7 °C 1023.6 hPa SSW 29.6 km/h 29.6 km/h 61 % 0.0 mm 0.0 W/m2 CLR
00:52 18.3 °C 10.7 °C 1023.6 hPa SSW 25.9 km/h 25.9 km/h 61 % 0.0 mm 0.0 W/m2 CLR
00:58 18.3 °C 10.7 °C 1023.6 hPa SSW 20.4 km/h 20.4 km/h 61 % 0.0 mm 0.0 W/m2 CLR
01:03 18.3 °C 10.9 °C 1023.6 hPa SW 29.6 km/h 29.6 km/h 62 % 0.0 mm 0.0 W/m2 CLR
01:08 17.8 °C 10.4 °C 1023.6 hPa SSW 20.4 km/h 20.4 km/h 62 % 0.0 mm 0.0 W/m2 CLR
01:13 17.8 °C 10.4 °C 1023.2 hPa South 25.9 km/h 25.9 km/h 62 % 0.0 mm 0.0 W/m2 CLR
01:18 17.8 °C 10.4 °C 1023.2 hPa SSW 20.4 km/h 20.4 km/h 62 % 0.0 mm 0.0 W/m2 CLR
01:23 17.8 °C 10.2 °C 1023.2 hPa SSW 31.5 km/h 31.5 km/h 61 % 0.0 mm 0.0 W/m2 CLR
01:28 17.8 °C 10.2 °C 1023.2 hPa SSW 20.9 km/h 20.9 km/h 61 % 0.0 mm 0.0 W/m2 CLR
01:33 17.8 °C 10.2 °C 1023.2 hPa SSW 33.3 km/h 33.3 km/h 61 % 0.0 mm 0.0 W/m2 CLR
01:38 17.2 °C 9.6 °C 1023.2 hPa SSW 27.8 km/h 27.8 km/h 61 % 0.0 mm 0.0 W/m2 CLR
01:43 17.2 °C 9.9 °C 1023.2 hPa SSW 24.1 km/h 24.1 km/h 62 % 0.0 mm 0.0 W/m2 CLR
01:48 17.2 °C 9.9 °C 1023.2 hPa SSW 20.4 km/h 20.4 km/h 62 % 0.0 mm 0.0 W/m2 CLR
01:53 17.2 °C 9.9 °C 1022.9 hPa SSW 27.8 km/h 27.8 km/h 62 % 0.0 mm 0.0 W/m2 CLR
01:58 17.2 °C 9.9 °C 1022.9 hPa WSW 22.2 km/h 22.2 km/h 62 % 0.0 mm 0.0 W/m2 CLR
02:03 17.2 °C 9.9 °C 1022.9 hPa South 25.9 km/h 25.9 km/h 62 % 0.0 mm 0.0 W/m2 CLR
02:08 17.2 °C 9.9 °C 1022.9 hPa SW 29.6 km/h 29.6 km/h 62 % 0.0 mm 0.0 W/m2 CLR
02:13 17.2 °C 9.9 °C 1022.6 hPa SW 29.6 km/h 29.6 km/h 62 % 0.0 mm 0.0 W/m2 CLR
02:18 17.2 °C 10.1 °C 1022.6 hPa SSW 29.6 km/h 29.6 km/h 63 % 0.0 mm 0.0 W/m2 CLR
02:23 17.2 °C 10.1 °C 1022.6 hPa SSW 19.3 km/h 19.3 km/h 63 % 0.0 mm 0.0 W/m2 CLR
02:28 17.2 °C 10.1 °C 1022.9 hPa SSW 22.2 km/h 22.2 km/h 63 % 0.0 mm 0.0 W/m2 CLR
02:34 16.7 °C 9.6 °C 1022.6 hPa SSW 22.2 km/h 22.2 km/h 63 % 0.0 mm 0.0 W/m2 CLR
02:39 16.7 °C 9.6 °C 1022.6 hPa SSW 25.9 km/h 25.9 km/h 63 % 0.0 mm 0.0 W/m2 CLR
02:44 16.7 °C 9.6 °C 1022.9 hPa SSW 16.7 km/h 16.7 km/h 63 % 0.0 mm 0.0 W/m2 CLR
02:49 16.7 °C 9.6 °C 1022.9 hPa SSW 17.7 km/h 17.7 km/h 63 % 0.0 mm 0.0 W/m2 CLR
02:54 16.7 °C 9.8 °C 1022.6 hPa SSW 18.5 km/h 18.5 km/h 64 % 0.0 mm 0.0 W/m2 CLR
02:59 16.7 °C 9.8 °C 1022.6 hPa SSW 19.3 km/h 19.3 km/h 64 % 0.0 mm 0.0 W/m2 CLR
03:04 16.7 °C 9.8 °C 1022.6 hPa SSW 18.5 km/h 18.5 km/h 64 % 0.0 mm 0.0 W/m2 CLR
03:09 16.7 °C 9.8 °C 1022.9 hPa SSW 24.1 km/h 25.1 km/h 64 % 0.0 mm 0.0 W/m2 CLR
03:14 16.7 °C 9.8 °C 1022.9 hPa South 18.5 km/h 18.5 km/h 64 % 0.0 mm 0.0 W/m2 CLR
03:19 16.7 °C 9.8 °C 1022.9 hPa SSW 19.3 km/h 19.3 km/h 64 % 0.0 mm 0.0 W/m2 CLR
03:24 16.7 °C 9.8 °C 1022.9 hPa SSW 20.9 km/h 20.9 km/h 64 % 0.0 mm 0.0 W/m2 CLR
03:34 16.1 °C 9.5 °C 1022.6 hPa SSW 22.2 km/h 22.2 km/h 65 % 0.0 mm 0.0 W/m2 CLR
03:39 16.1 °C 9.5 °C 1022.9 hPa South 20.9 km/h 20.9 km/h 65 % 0.0 mm 0.0 W/m2 CLR
03:44 16.1 °C 9.5 °C 1022.6 hPa SSW 24.1 km/h 24.1 km/h 65 % 0.0 mm 0.0 W/m2 CLR
03:49 16.1 °C 9.5 °C 1022.6 hPa SW 29.6 km/h 29.6 km/h 65 % 0.0 mm 0.0 W/m2 CLR
03:54 16.1 °C 9.5 °C 1022.6 hPa SW 18.5 km/h 18.5 km/h 65 % 0.0 mm 0.0 W/m2 CLR
03:59 16.1 °C 9.5 °C 1022.6 hPa South 24.1 km/h 24.1 km/h 65 % 0.0 mm 0.0 W/m2 CLR
04:04 16.1 °C 9.5 °C 1022.6 hPa SSW 29.6 km/h 29.6 km/h 65 % 0.0 mm 0.0 W/m2 CLR
04:09 16.1 °C 9.8 °C 1022.6 hPa South 16.7 km/h 16.7 km/h 66 % 0.0 mm 0.0 W/m2 CLR
04:14 16.1 °C 9.8 °C 1022.6 hPa South 14.8 km/h 14.8 km/h 66 % 0.0 mm 0.0 W/m2 CLR
04:19 16.1 °C 9.8 °C 1022.6 hPa SSW 27.8 km/h 27.8 km/h 66 % 0.0 mm 0.0 W/m2 CLR
04:24 16.1 °C 9.8 °C 1022.6 hPa South 20.4 km/h 20.4 km/h 66 % 0.0 mm 0.0 W/m2 CLR
04:29 15.6 °C 9.2 °C 1022.6 hPa SSW 18.5 km/h 18.5 km/h 66 % 0.0 mm 0.0 W/m2 CLR
04:34 15.6 °C 9.2 °C 1022.6 hPa SW 18.5 km/h 18.5 km/h 66 % 0.0 mm 0.0 W/m2 CLR
04:39 15.6 °C 9.2 °C 1022.6 hPa South 14.8 km/h 14.8 km/h 66 % 0.0 mm 0.0 W/m2 CLR
04:44 15.6 °C 9.2 °C 1022.6 hPa SSW 24.1 km/h 24.1 km/h 66 % 0.0 mm 0.0 W/m2 CLR
04:49 15.6 °C 9.2 °C 1022.6 hPa SSW 22.5 km/h 22.5 km/h 66 % 0.0 mm 0.0 W/m2 CLR
04:54 15.6 °C 9.4 °C 1022.6 hPa SSW 18.5 km/h 18.5 km/h 67 % 0.0 mm 0.0 W/m2 CLR
04:59 15.6 °C 9.4 °C 1022.6 hPa SSW 14.8 km/h 14.8 km/h 67 % 0.0 mm 0.0 W/m2 CLR
05:04 15.6 °C 9.4 °C 1022.6 hPa South 18.5 km/h 18.5 km/h 67 % 0.0 mm 0.0 W/m2 CLR
05:09 15.6 °C 9.4 °C 1022.2 hPa SSW 20.4 km/h 20.4 km/h 67 % 0.0 mm 0.0 W/m2 CLR
05:16 15.6 °C 9.4 °C 1022.2 hPa South 20.4 km/h 20.4 km/h 67 % 0.0 mm 0.0 W/m2 CLR
05:20 15.6 °C 9.4 °C 1022.2 hPa SSE 11.3 km/h 11.3 km/h 67 % 0.0 mm 0.0 W/m2 CLR
05:21 15.6 °C 9.7 °C 1022.2 hPa SSW 14.8 km/h 14.8 km/h 68 % 0.0 mm 0.0 W/m2 CLR
05:23 15.6 °C 9.7 °C 1022.2 hPa SSW 9.3 km/h 9.3 km/h 68 % 0.0 mm 0.0 W/m2 CLR
05:26 15.6 °C 9.7 °C 1022.2 hPa SSE 13.0 km/h 13.0 km/h 68 % 0.0 mm 0.0 W/m2 CLR
05:31 15.6 °C 9.7 °C 1022.2 hPa SSW 13.0 km/h 13.0 km/h 68 % 0.0 mm 0.0 W/m2 CLR
05:36 15.6 °C 9.7 °C 1022.2 hPa SE 9.3 km/h 9.3 km/h 68 % 0.0 mm 0.0 W/m2 CLR
05:41 15.6 °C 9.7 °C 1022.2 hPa South 4.8 km/h 4.8 km/h 68 % 0.0 mm 0.0 W/m2 CLR
05:46 15.6 °C 9.7 °C 1022.2 hPa SSE 7.4 km/h 7.4 km/h 68 % 0.0 mm 0.0 W/m2 CLR
05:51 15.0 °C 9.1 °C 1022.2 hPa South 5.6 km/h 5.6 km/h 68 % 0.0 mm 0.0 W/m2 CLR
05:56 15.0 °C 9.3 °C 1021.9 hPa SSE 13.0 km/h 13.0 km/h 69 % 0.0 mm 0.0 W/m2 CLR
06:01 15.0 °C 9.3 °C 1021.9 hPa SSE 9.7 km/h 9.7 km/h 69 % 0.0 mm 0.0 W/m2 CLR
06:06 14.4 °C 8.8 °C 1021.9 hPa Calm     69 % 0.0 mm 0.0 W/m2 CLR
06:11 14.4 °C 8.8 °C 1021.9 hPa SSE 9.3 km/h 9.3 km/h 69 % 0.0 mm 0.0 W/m2 CLR
06:16 14.4 °C 8.8 °C 1021.9 hPa South 16.7 km/h 16.7 km/h 69 % 0.0 mm 0.0 W/m2 CLR
06:21 14.4 °C 8.8 °C 1021.6 hPa South 20.4 km/h 20.4 km/h 69 % 0.0 mm 0.0 W/m2 CLR
06:27 14.4 °C 8.6 °C 1021.6 hPa South 16.7 km/h 16.7 km/h 68 % 0.0 mm 0.0 W/m2 CLR
06:32 14.4 °C 8.6 °C 1021.6 hPa South 16.7 km/h 16.7 km/h 68 % 0.0 mm 0.0 W/m2 CLR
06:37 14.4 °C 8.6 °C 1021.6 hPa South 18.5 km/h 18.5 km/h 68 % 0.0 mm 0.0 W/m2 CLR
06:42 14.4 °C 8.6 °C 1021.6 hPa SE 14.8 km/h 14.8 km/h 68 % 0.0 mm 0.0 W/m2 CLR
06:47 15.0 °C 9.3 °C 1021.6 hPa SSE 14.8 km/h 14.8 km/h 69 % 0.0 mm 0.0 W/m2 CLR
06:52 15.0 °C 9.3 °C 1021.6 hPa SSE 7.4 km/h 7.4 km/h 69 % 0.0 mm 0.0 W/m2 CLR
06:57 15.0 °C 9.6 °C 1021.6 hPa South 16.7 km/h 16.7 km/h 70 % 0.0 mm 0.0 W/m2 CLR
07:02 14.4 °C 9.1 °C 1021.9 hPa Calm     70 % 0.0 mm 0.0 W/m2 CLR
07:07 14.4 °C 9.1 °C 1021.9 hPa Calm     70 % 0.0 mm 0.0 W/m2 CLR
07:12 13.9 °C 8.7 °C 1021.6 hPa South 11.3 km/h 11.3 km/h 71 % 0.0 mm 0.0 W/m2 CLR
07:17 13.3 °C 8.2 °C 1021.9 hPa South 9.3 km/h 9.3 km/h 71 % 0.0 mm 0.0 W/m2 CLR
07:22 13.3 °C 8.2 °C 1021.9 hPa South 11.1 km/h 11.1 km/h 71 % 0.0 mm 0.0 W/m2 CLR
07:27 13.3 °C 8.2 °C 1021.9 hPa SSE 11.1 km/h 11.1 km/h 71 % 0.0 mm 0.0 W/m2 OVC
07:32 13.3 °C 8.2 °C 1021.9 hPa SSW 14.8 km/h 14.8 km/h 71 % 0.0 mm 0.0 W/m2 OVC
07:37 13.3 °C 8.2 °C 1021.9 hPa South 18.5 km/h 18.5 km/h 71 % 0.0 mm 7.0 W/m2 OVC
07:42 13.3 °C 8.2 °C 1021.9 hPa South 14.8 km/h 14.8 km/h 71 % 0.0 mm 11.0 W/m2 BKN
07:47 13.3 °C 8.2 °C 1021.9 hPa South 9.7 km/h 9.7 km/h 71 % 0.0 mm 16.0 W/m2 BKN
07:52 13.3 °C 8.2 °C 1021.9 hPa SSE 13.0 km/h 13.0 km/h 71 % 0.0 mm 19.0 W/m2 BKN
07:57 13.9 °C 8.7 °C 1021.9 hPa SSE 14.5 km/h 14.5 km/h 71 % 0.0 mm 25.0 W/m2 BKN
08:02 13.9 °C 8.7 °C 1021.9 hPa SSE 18.5 km/h 18.5 km/h 71 % 0.0 mm 30.0 W/m2 BKN
08:07 14.4 °C 9.2 °C 1021.9 hPa SE 11.1 km/h 11.1 km/h 71 % 0.0 mm 39.0 W/m2 BKN
08:12 14.4 °C 9.2 °C 1022.2 hPa SSE 11.1 km/h 11.1 km/h 71 % 0.0 mm 46.0 W/m2 SCT
08:17 14.4 °C 9.2 °C 1021.9 hPa South 11.1 km/h 11.1 km/h 71 % 0.0 mm 60.0 W/m2 SCT
08:22 14.4 °C 9.2 °C 1022.2 hPa South 18.5 km/h 18.5 km/h 71 % 0.0 mm 67.0 W/m2 FEW
08:27 14.4 °C 9.1 °C 1022.2 hPa SSE 18.5 km/h 18.5 km/h 70 % 0.0 mm 74.0 W/m2 FEW
08:32 15.0 °C 9.6 °C 1022.2 hPa SSE 16.7 km/h 16.7 km/h 70 % 0.0 mm 70.0 W/m2 FEW
08:37 15.0 °C 9.6 °C 1022.2 hPa SSE 18.5 km/h 18.5 km/h 70 % 0.0 mm 97.0 W/m2 FEW
08:42 15.0 °C 9.3 °C 1022.2 hPa South 12.9 km/h 12.9 km/h 69 % 0.0 mm 56.0 W/m2 FEW
08:47 15.0 °C 9.3 °C 1021.9 hPa South 14.8 km/h 14.8 km/h 69 % 0.0 mm 69.0 W/m2 SCT
08:52 15.0 °C 9.1 °C 1021.9 hPa South 24.1 km/h 24.1 km/h 68 % 0.0 mm 163.0 W/m2 FEW
08:57 15.6 °C 9.7 °C 1021.9 hPa SSW 20.4 km/h 20.4 km/h 68 % 0.0 mm 181.0 W/m2 CLR
09:02 15.6 °C 9.7 °C 1021.9 hPa South 22.2 km/h 22.2 km/h 68 % 0.0 mm 195.0 W/m2 CLR
09:07 15.6 °C 9.4 °C 1021.9 hPa SSW 20.4 km/h 20.4 km/h 67 % 0.0 mm 211.0 W/m2 CLR
09:12 16.1 °C 10.0 °C 1021.9 hPa South 20.4 km/h 20.4 km/h 67 % 0.0 mm 230.0 W/m2 CLR
09:17 16.1 °C 9.8 °C 1021.9 hPa SSW 27.8 km/h 27.8 km/h 66 % 0.0 mm 244.0 W/m2 CLR
09:22 16.1 °C 9.8 °C 1021.9 hPa SSW 18.5 km/h 18.5 km/h 66 % 0.0 mm 264.0 W/m2 CLR
09:27 16.7 °C 10.1 °C 1021.9 hPa SW 31.5 km/h 31.5 km/h 65 % 0.0 mm 278.0 W/m2 CLR
09:32 16.7 °C 10.1 °C 1022.2 hPa SSW 24.1 km/h 24.1 km/h 65 % 0.0 mm 292.0 W/m2 CLR
09:37 16.7 °C 10.1 °C 1022.2 hPa SW 35.2 km/h 35.2 km/h 65 % 0.0 mm 309.0 W/m2 CLR
09:42 16.7 °C 10.3 °C 1022.2 hPa SW 22.2 km/h 22.2 km/h 66 % 0.0 mm 327.0 W/m2 CLR
09:47 16.7 °C 10.1 °C 1022.2 hPa SW 31.5 km/h 31.5 km/h 65 % 0.0 mm 334.0 W/m2 CLR
09:52 17.2 °C 10.6 °C 1022.2 hPa WSW 24.1 km/h 24.1 km/h 65 % 0.0 mm 352.0 W/m2 CLR
09:57 17.2 °C 10.6 °C 1022.2 hPa SSW 27.8 km/h 27.8 km/h 65 % 0.0 mm 373.0 W/m2 CLR
10:02 17.2 °C 10.3 °C 1022.2 hPa SW 27.8 km/h 27.8 km/h 64 % 0.0 mm 387.0 W/m2 CLR
10:07 17.2 °C 10.3 °C 1022.2 hPa SW 25.9 km/h 25.9 km/h 64 % 0.0 mm 399.0 W/m2 CLR
10:12 17.2 °C 10.1 °C 1022.2 hPa SSW 25.9 km/h 25.9 km/h 63 % 0.0 mm 411.0 W/m2 CLR
10:17 17.8 °C 10.6 °C 1022.2 hPa SSW 25.9 km/h 25.9 km/h 63 % 0.0 mm 429.0 W/m2 CLR
10:22 17.2 °C 10.1 °C 1022.2 hPa SW 31.5 km/h 31.5 km/h 63 % 0.0 mm 446.0 W/m2 CLR
10:27 17.8 °C 10.4 °C 1022.2 hPa WSW 25.9 km/h 25.9 km/h 62 % 0.0 mm 461.0 W/m2 CLR
10:32 17.8 °C 10.6 °C 1022.2 hPa SW 19.3 km/h 19.3 km/h 63 % 0.0 mm 464.0 W/m2 CLR
10:38 17.8 °C 10.2 °C 1022.6 hPa SW 29.0 km/h 29.0 km/h 61 % 0.0 mm 489.0 W/m2 CLR
10:43 18.3 °C 10.9 °C 1022.6 hPa SW 22.2 km/h 22.2 km/h 62 % 0.0 mm 504.0 W/m2 CLR
10:48 18.3 °C 10.7 °C 1022.2 hPa South 20.4 km/h 20.4 km/h 61 % 0.0 mm 522.0 W/m2 CLR
10:52 18.3 °C 10.7 °C 1022.6 hPa SW 25.9 km/h 25.9 km/h 61 % 0.0 mm 533.0 W/m2 CLR
10:57 18.3 °C 10.7 °C 1022.2 hPa SW 22.2 km/h 22.2 km/h 61 % 0.0 mm 536.0 W/m2 CLR
11:03 18.3 °C 10.7 °C 1022.2 hPa SSW 16.7 km/h 16.7 km/h 61 % 0.0 mm 555.0 W/m2 CLR
11:08 18.3 °C 10.4 °C 1022.6 hPa WSW 25.9 km/h 25.9 km/h 60 % 0.0 mm 577.0 W/m2 CLR
11:13 18.9 °C 10.7 °C 1022.2 hPa SSW 25.9 km/h 25.9 km/h 59 % 0.0 mm 591.0 W/m2 CLR
11:18 18.9 °C 10.7 °C 1022.2 hPa WSW 20.4 km/h 20.4 km/h 59 % 0.0 mm 591.0 W/m2 CLR
11:23 18.9 °C 10.7 °C 1022.2 hPa SW 24.1 km/h 24.1 km/h 59 % 0.0 mm 605.0 W/m2 CLR
11:28 19.4 °C 10.9 °C 1022.2 hPa West 20.4 km/h 20.4 km/h 58 % 0.0 mm 555.0 W/m2 CLR
11:33 19.4 °C 10.4 °C 1022.2 hPa SSW 25.9 km/h 25.9 km/h 56 % 0.0 mm 587.0 W/m2 CLR
11:38 19.4 °C 10.9 °C 1022.2 hPa SSW 18.5 km/h 19.6 km/h 58 % 0.0 mm 622.0 W/m2 CLR
11:43 20.0 °C 11.2 °C 1022.2 hPa SW 27.8 km/h 27.8 km/h 57 % 0.0 mm 647.0 W/m2 CLR
11:48 20.0 °C 11.2 °C 1021.9 hPa SW 27.4 km/h 27.4 km/h 57 % 0.0 mm 675.0 W/m2 CLR
11:53 20.0 °C 10.9 °C 1022.2 hPa SW 25.9 km/h 25.9 km/h 56 % 0.0 mm 680.0 W/m2 CLR
11:58 20.0 °C 10.7 °C 1022.2 hPa SSW 29.6 km/h 29.6 km/h 55 % 0.0 mm 689.0 W/m2 CLR
12:03 20.6 °C 11.2 °C 1022.2 hPa South 18.5 km/h 18.5 km/h 55 % 0.0 mm 694.0 W/m2 CLR
12:08 21.1 °C 11.4 °C 1022.2 hPa SW 13.0 km/h 13.0 km/h 54 % 0.0 mm 707.0 W/m2 CLR
12:13 21.1 °C 11.7 °C 1022.2 hPa SSW 27.8 km/h 27.8 km/h 55 % 0.0 mm 714.0 W/m2 CLR
12:18 20.6 °C 10.7 °C 1021.9 hPa SW 31.5 km/h 31.5 km/h 53 % 0.0 mm 721.0 W/m2 CLR
12:23 21.1 °C 11.2 °C 1021.9 hPa South 25.9 km/h 25.9 km/h 53 % 0.0 mm 729.0 W/m2 CLR
12:28 21.1 °C 11.2 °C 1021.9 hPa SW 20.9 km/h 20.9 km/h 53 % 0.0 mm 733.0 W/m2 CLR
12:33 21.1 °C 10.9 °C 1021.9 hPa South 25.7 km/h 25.7 km/h 52 % 0.0 mm 740.0 W/m2 CLR
12:38 21.1 °C 10.6 °C 1021.9 hPa SW 18.5 km/h 18.5 km/h 51 % 0.0 mm 752.0 W/m2 CLR
12:43 21.7 °C 11.1 °C 1021.6 hPa SSW 20.4 km/h 20.4 km/h 51 % 0.0 mm 759.0 W/m2 CLR
12:48 21.7 °C 10.8 °C 1021.6 hPa SSW 24.1 km/h 24.1 km/h 50 % 0.0 mm 766.0 W/m2 CLR
12:53 21.7 °C 10.8 °C 1021.6 hPa SSE 22.2 km/h 22.2 km/h 50 % 0.0 mm 772.0 W/m2 CLR
12:58 22.2 °C 10.7 °C 1021.6 hPa SW 25.9 km/h 25.9 km/h 48 % 0.0 mm 780.0 W/m2 CLR
13:03 22.2 °C 11.0 °C 1021.2 hPa SW 24.1 km/h 24.1 km/h 49 % 0.0 mm 786.0 W/m2 CLR
13:08 22.2 °C 10.4 °C 1021.2 hPa SSW 25.9 km/h 25.9 km/h 47 % 0.0 mm 793.0 W/m2 CLR
13:13 22.2 °C 10.7 °C 1021.2 hPa WSW 18.5 km/h 18.5 km/h 48 % 0.0 mm 789.0 W/m2 CLR
13:18 22.8 °C 11.2 °C 1021.2 hPa West 22.5 km/h 22.5 km/h 48 % 0.0 mm 795.0 W/m2 CLR
13:23 22.8 °C 11.2 °C 1020.9 hPa SW 16.1 km/h 16.1 km/h 48 % 0.0 mm 793.0 W/m2 CLR
13:28 22.8 °C 10.9 °C 1020.9 hPa SW 22.2 km/h 22.2 km/h 47 % 0.0 mm 796.0 W/m2 CLR
13:33 22.8 °C 10.9 °C 1020.9 hPa SW 18.5 km/h 18.5 km/h 47 % 0.0 mm 800.0 W/m2 CLR
13:38 23.3 °C 11.1 °C 1020.5 hPa SSW 24.1 km/h 24.1 km/h 46 % 0.0 mm 803.0 W/m2 CLR
13:43 22.8 °C 10.6 °C 1020.5 hPa SSW 29.6 km/h 29.6 km/h 46 % 0.0 mm 809.0 W/m2 CLR
13:48 23.3 °C 10.7 °C 1020.5 hPa South 18.5 km/h 18.5 km/h 45 % 0.0 mm 812.0 W/m2 CLR
13:53 23.3 °C 10.4 °C 1020.5 hPa WSW 18.5 km/h 18.5 km/h 44 % 0.0 mm 816.0 W/m2 CLR
13:58 23.3 °C 10.4 °C 1020.5 hPa SW 25.9 km/h 25.9 km/h 44 % 0.0 mm 809.0 W/m2 CLR
14:03 23.3 °C 10.4 °C 1020.2 hPa SW 11.1 km/h 11.1 km/h 44 % 0.0 mm 803.0 W/m2 CLR
14:08 23.3 °C 10.1 °C 1020.2 hPa South 25.9 km/h 25.9 km/h 43 % 0.0 mm 805.0 W/m2 CLR
14:13 23.9 °C 10.9 °C 1020.2 hPa SW 22.5 km/h 22.5 km/h 44 % 0.0 mm 810.0 W/m2 CLR
14:18 23.9 °C 10.2 °C 1020.2 hPa SW 25.9 km/h 25.9 km/h 42 % 0.0 mm 807.0 W/m2 CLR
14:23 23.9 °C 10.2 °C 1019.9 hPa SW 18.5 km/h 18.5 km/h 42 % 0.0 mm 800.0 W/m2 CLR
14:28 23.9 °C 9.4 °C 1019.9 hPa West 27.8 km/h 27.8 km/h 40 % 0.0 mm 798.0 W/m2 CLR
14:33 24.4 °C 10.7 °C 1019.9 hPa South 22.2 km/h 22.2 km/h 42 % 0.0 mm 796.0 W/m2 CLR
14:38 23.9 °C 9.4 °C 1019.9 hPa SSW 22.5 km/h 22.5 km/h 40 % 0.0 mm 791.0 W/m2 CLR
14:43 24.4 °C 10.3 °C 1019.5 hPa SW 29.6 km/h 29.6 km/h 41 % 0.0 mm 786.0 W/m2 CLR
14:48 23.9 °C 9.8 °C 1019.5 hPa SSW 27.8 km/h 27.8 km/h 41 % 0.0 mm 780.0 W/m2 CLR
14:53 23.9 °C 9.4 °C 1019.5 hPa SW 31.5 km/h 31.5 km/h 40 % 0.0 mm 766.0 W/m2 CLR
14:58 24.4 °C 9.6 °C 1019.5 hPa SW 25.9 km/h 25.9 km/h 39 % 0.0 mm 751.0 W/m2 CLR
15:03 24.4 °C 9.9 °C 1019.2 hPa WSW 18.5 km/h 18.5 km/h 40 % 0.0 mm 759.0 W/m2 CLR
15:08 24.4 °C 9.6 °C 1019.2 hPa WSW 16.7 km/h 16.7 km/h 39 % 0.0 mm 744.0 W/m2 CLR
15:13 24.4 °C 9.2 °C 1019.2 hPa SSW 25.9 km/h 25.9 km/h 38 % 0.0 mm 724.0 W/m2 CLR
15:18 24.4 °C 9.6 °C 1019.2 hPa SW 22.2 km/h 22.2 km/h 39 % 0.0 mm 703.0 W/m2 CLR
15:23 24.4 °C 9.2 °C 1019.2 hPa SW 19.3 km/h 19.3 km/h 38 % 0.0 mm 687.0 W/m2 CLR
15:28 24.4 °C 8.8 °C 1018.8 hPa SSW 25.7 km/h 25.7 km/h 37 % 0.0 mm 686.0 W/m2 CLR
15:33 25.0 °C 9.7 °C 1018.8 hPa SSW 25.9 km/h 25.9 km/h 38 % 0.0 mm 679.0 W/m2 CLR
15:38 25.0 °C 10.1 °C 1018.8 hPa SSW 14.8 km/h 14.8 km/h 39 % 0.0 mm 671.0 W/m2 CLR
15:43 25.0 °C 10.1 °C 1018.8 hPa WSW 18.5 km/h 18.5 km/h 39 % 0.0 mm 663.0 W/m2 CLR
15:48 25.0 °C 9.7 °C 1018.8 hPa WSW 29.6 km/h 29.6 km/h 38 % 0.0 mm 649.0 W/m2 CLR
15:53 25.0 °C 9.3 °C 1018.5 hPa SSW 25.9 km/h 25.9 km/h 37 % 0.0 mm 629.0 W/m2 CLR
15:58 25.0 °C 9.7 °C 1018.5 hPa SW 16.7 km/h 16.7 km/h 38 % 0.0 mm 635.0 W/m2 CLR
16:03 25.0 °C 9.3 °C 1018.5 hPa WSW 27.8 km/h 27.8 km/h 37 % 0.0 mm 624.0 W/m2 CLR
16:09 25.0 °C 9.3 °C 1018.5 hPa West 18.5 km/h 18.5 km/h 37 % 0.0 mm 610.0 W/m2 CLR
16:14 24.4 °C 9.2 °C 1018.5 hPa West 13.0 km/h 13.0 km/h 38 % 0.0 mm 605.0 W/m2 CLR
16:19 25.0 °C 8.9 °C 1018.2 hPa South 16.7 km/h 16.7 km/h 36 % 0.0 mm 591.0 W/m2 CLR
16:24 25.0 °C 9.3 °C 1018.5 hPa SW 22.5 km/h 22.5 km/h 37 % 0.0 mm 582.0 W/m2 CLR
16:28 25.6 °C 9.4 °C 1018.2 hPa WSW 24.1 km/h 24.1 km/h 36 % 0.0 mm 566.0 W/m2 CLR
16:34 25.6 °C 9.8 °C 1018.2 hPa SW 3.7 km/h   37 % 0.0 mm 563.0 W/m2 CLR
16:39 25.6 °C 9.4 °C 1018.2 hPa WSW 24.1 km/h 24.1 km/h 36 % 0.0 mm 559.0 W/m2 CLR
16:44 25.6 °C 9.4 °C 1018.2 hPa SW 20.4 km/h 20.4 km/h 36 % 0.0 mm 547.0 W/m2 CLR
16:49 25.6 °C 8.9 °C 1018.2 hPa SW 18.5 km/h 18.5 km/h 35 % 0.0 mm 536.0 W/m2 CLR
16:54 25.6 °C 9.4 °C 1017.8 hPa WSW 11.1 km/h 11.1 km/h 36 % 0.0 mm 529.0 W/m2 CLR
16:59 25.6 °C 8.6 °C 1017.8 hPa SSW 16.7 km/h 16.7 km/h 34 % 0.0 mm 510.0 W/m2 CLR
17:04 25.6 °C 8.6 °C 1017.8 hPa West 22.2 km/h 22.2 km/h 34 % 0.0 mm 504.0 W/m2 CLR
17:09 25.6 °C 8.9 °C 1017.8 hPa SW 20.4 km/h 20.4 km/h 35 % 0.0 mm 490.0 W/m2 CLR
17:14 25.6 °C 8.9 °C 1017.8 hPa SW 14.8 km/h 14.8 km/h 35 % 0.0 mm 462.0 W/m2 CLR
17:19 25.6 °C 8.9 °C 1017.8 hPa SSW 24.1 km/h 24.1 km/h 35 % 0.0 mm 468.0 W/m2 CLR
17:24 25.6 °C 8.9 °C 1017.5 hPa SSW 9.3 km/h 9.3 km/h 35 % 0.0 mm 455.0 W/m2 CLR
17:29 25.6 °C 8.9 °C 1017.5 hPa SSE 7.4 km/h 7.4 km/h 35 % 0.0 mm 439.0 W/m2 CLR
17:34 25.6 °C 9.4 °C 1017.5 hPa SW 18.5 km/h 18.5 km/h 36 % 0.0 mm 420.0 W/m2 CLR
17:39 25.6 °C 8.9 °C 1017.5 hPa WNW 18.5 km/h 18.5 km/h 35 % 0.0 mm 408.0 W/m2 CLR
17:44 25.6 °C 9.4 °C 1017.5 hPa SW 19.3 km/h 19.3 km/h 36 % 0.0 mm 381.0 W/m2 CLR
17:49 25.6 °C 9.4 °C 1017.5 hPa West 14.8 km/h 14.8 km/h 36 % 0.0 mm 376.0 W/m2 CLR
17:54 25.0 °C 8.4 °C 1017.5 hPa SW 18.5 km/h 18.5 km/h 35 % 0.0 mm 345.0 W/m2 CLR
17:59 25.6 °C 9.4 °C 1017.5 hPa WSW 16.7 km/h 16.7 km/h 36 % 0.0 mm 334.0 W/m2 CLR
18:04 25.6 °C 9.4 °C 1017.5 hPa WSW 18.5 km/h 18.5 km/h 36 % 0.0 mm 311.0 W/m2 CLR
18:09 25.0 °C 8.9 °C 1017.5 hPa WSW 18.5 km/h 18.5 km/h 36 % 0.0 mm 320.0 W/m2 CLR
18:14 25.0 °C 8.9 °C 1017.5 hPa SW 20.4 km/h 20.4 km/h 36 % 0.0 mm 287.0 W/m2 CLR
18:19 25.0 °C 9.3 °C 1017.5 hPa WSW 22.2 km/h 22.2 km/h 37 % 0.0 mm 278.0 W/m2 CLR
18:24 24.4 °C 8.8 °C 1017.5 hPa West 18.5 km/h 18.5 km/h 37 % 0.0 mm 272.0 W/m2 CLR
18:29 24.4 °C 8.8 °C 1017.5 hPa WSW 18.5 km/h 18.5 km/h 37 % 0.0 mm 265.0 W/m2 CLR
18:34 24.4 °C 8.8 °C 1017.5 hPa SW 27.8 km/h 27.8 km/h 37 % 0.0 mm 244.0 W/m2 CLR
18:39 24.4 °C 9.2 °C 1017.5 hPa SSW 13.0 km/h 13.0 km/h 38 % 0.0 mm 229.0 W/m2 CLR
18:44 24.4 °C 9.2 °C 1017.5 hPa SW 16.7 km/h 16.7 km/h 38 % 0.0 mm 213.0 W/m2 CLR
18:49 24.4 °C 9.2 °C 1017.2 hPa SW 27.8 km/h 27.8 km/h 38 % 0.0 mm 197.0 W/m2 CLR
18:54 23.9 °C 8.7 °C 1017.5 hPa WSW 27.8 km/h 27.8 km/h 38 % 0.0 mm 181.0 W/m2 CLR
18:59 23.9 °C 8.7 °C 1017.2 hPa WSW 29.6 km/h 29.6 km/h 38 % 0.0 mm 160.0 W/m2 CLR
19:04 23.9 °C 8.7 °C 1017.5 hPa WSW 22.5 km/h 22.5 km/h 38 % 0.0 mm 146.0 W/m2 CLR
19:09 23.9 °C 8.7 °C 1017.5 hPa WSW 19.3 km/h 19.3 km/h 38 % 0.0 mm 130.0 W/m2 CLR
19:14 23.9 °C 8.7 °C 1017.5 hPa West 25.9 km/h 25.9 km/h 38 % 0.0 mm 116.0 W/m2 CLR
19:19 23.9 °C 8.7 °C 1017.5 hPa SW 25.9 km/h 25.9 km/h 38 % 0.0 mm 102.0 W/m2 CLR
19:24 23.9 °C 8.3 °C 1017.5 hPa WSW 25.9 km/h 25.9 km/h 37 % 0.0 mm 91.0 W/m2 CLR
19:29 23.3 °C 7.8 °C 1017.5 hPa WSW 24.1 km/h 24.1 km/h 37 % 0.0 mm 79.0 W/m2 FEW
19:34 23.3 °C 8.2 °C 1017.5 hPa West 27.8 km/h 27.8 km/h 38 % 0.0 mm 67.0 W/m2 FEW
19:39 23.3 °C 8.2 °C 1017.5 hPa SW 29.6 km/h 29.6 km/h 38 % 0.0 mm 54.0 W/m2 SCT
19:44 23.3 °C 8.6 °C 1017.5 hPa WSW 18.5 km/h 18.5 km/h 39 % 0.0 mm 44.0 W/m2 SCT
19:49 22.8 °C 8.1 °C 1017.5 hPa WSW 13.0 km/h 13.0 km/h 39 % 0.0 mm 37.0 W/m2 BKN
19:54 22.8 °C 8.1 °C 1017.5 hPa WSW 18.5 km/h 18.5 km/h 39 % 0.0 mm 30.0 W/m2 BKN
19:59 22.2 °C 7.2 °C 1017.5 hPa SW 22.2 km/h 22.2 km/h 38 % 0.0 mm 23.0 W/m2 BKN
20:04 22.2 °C 7.2 °C 1017.5 hPa WSW 18.5 km/h 18.5 km/h 38 % 0.0 mm 16.0 W/m2 BKN
20:09 22.2 °C 7.2 °C 1017.8 hPa SW 25.9 km/h 25.9 km/h 38 % 0.0 mm 12.0 W/m2 BKN
20:14 22.2 °C 7.2 °C 1017.8 hPa WSW 20.9 km/h 20.9 km/h 38 % 0.0 mm 9.0 W/m2 BKN
20:19 22.2 °C 7.6 °C 1017.8 hPa SW 14.8 km/h 14.8 km/h 39 % 0.0 mm 5.0 W/m2 OVC
20:24 21.7 °C 7.1 °C 1017.8 hPa Calm   0.2 km/h 39 % 0.0 mm 0.0 W/m2 OVC
20:29 21.1 °C 6.6 °C 1017.8 hPa SW 11.3 km/h 11.3 km/h 39 % 0.0 mm 0.0 W/m2 OVC
20:34 20.6 °C 6.5 °C 1017.8 hPa SSW 13.0 km/h 13.0 km/h 40 % 0.0 mm 0.0 W/m2 CLR
20:39 20.6 °C 6.8 °C 1017.8 hPa SW 14.8 km/h 14.8 km/h 41 % 0.0 mm 0.0 W/m2 CLR
20:44 20.6 °C 6.8 °C 1017.8 hPa WSW 16.7 km/h 16.7 km/h 41 % 0.0 mm 0.0 W/m2 CLR
20:49 20.6 °C 7.2 °C 1017.8 hPa SW 1.6 km/h   42 % 0.0 mm 0.0 W/m2 CLR
20:54 20.0 °C 6.7 °C 1018.2 hPa SW 5.6 km/h 5.6 km/h 42 % 0.0 mm 0.0 W/m2 CLR
20:59 19.4 °C 6.6 °C 1018.2 hPa SW 13.0 km/h 13.0 km/h 43 % 0.0 mm 0.0 W/m2 CLR
21:04 18.9 °C 6.1 °C 1018.5 hPa SW 18.5 km/h 18.5 km/h 43 % 0.0 mm 0.0 W/m2 CLR
21:09 18.9 °C 6.1 °C 1018.5 hPa SSW 25.9 km/h 25.9 km/h 43 % 0.0 mm 0.0 W/m2 CLR
21:14 19.4 °C 6.6 °C 1018.5 hPa West 24.1 km/h 24.1 km/h 43 % 0.0 mm 0.0 W/m2 CLR
21:19 20.6 °C 7.9 °C 1018.5 hPa WSW 20.4 km/h 20.4 km/h 44 % 0.0 mm 0.0 W/m2 CLR
21:24 20.6 °C 7.9 °C 1018.5 hPa SSW 20.9 km/h 20.9 km/h 44 % 0.0 mm 0.0 W/m2 CLR
21:29 20.6 °C 8.2 °C 1018.8 hPa SW 18.5 km/h 18.5 km/h 45 % 0.0 mm 0.0 W/m2 CLR
21:30 20.6 °C 8.2 °C 1018.8 hPa SSW 18.5 km/h 18.5 km/h 45 % 0.0 mm 0.0 W/m2 CLR
21:35 20.6 °C 8.2 °C 1018.8 hPa SSW 20.4 km/h 20.4 km/h 45 % 0.0 mm 0.0 W/m2 CLR
21:40 20.6 °C 8.2 °C 1018.8 hPa WSW 31.5 km/h 31.5 km/h 45 % 0.0 mm 0.0 W/m2 CLR
21:45 20.6 °C 8.2 °C 1018.8 hPa SW 22.2 km/h 22.2 km/h 45 % 0.0 mm 0.0 W/m2 CLR
21:50 20.6 °C 8.6 °C 1018.8 hPa SW 18.5 km/h 18.5 km/h 46 % 0.0 mm 0.0 W/m2 CLR
21:55 20.6 °C 8.6 °C 1018.8 hPa SW 20.4 km/h 20.4 km/h 46 % 0.0 mm 0.0 W/m2 CLR
22:00 20.0 °C 8.3 °C 1018.8 hPa WSW 24.1 km/h 24.1 km/h 47 % 0.0 mm 0.0 W/m2 CLR
22:05 20.6 °C 9.2 °C 1018.8 hPa WSW 31.5 km/h 31.5 km/h 48 % 0.0 mm 0.0 W/m2 CLR
22:10 20.6 °C 8.8 °C 1018.8 hPa SW 33.3 km/h 33.3 km/h 47 % 0.0 mm 0.0 W/m2 CLR
22:15 20.6 °C 8.8 °C 1018.8 hPa SSW 20.4 km/h 20.4 km/h 47 % 0.0 mm 0.0 W/m2 CLR
22:20 20.6 °C 8.8 °C 1018.8 hPa SSW 18.5 km/h 18.5 km/h 47 % 0.0 mm 0.0 W/m2 CLR
22:25 20.0 °C 8.7 °C 1018.8 hPa SW 25.9 km/h 25.9 km/h 48 % 0.0 mm 0.0 W/m2 CLR
22:30 20.0 °C 8.7 °C 1018.8 hPa SSW 27.8 km/h 27.8 km/h 48 % 0.0 mm 0.0 W/m2 CLR
22:35 20.0 °C 8.9 °C 1018.8 hPa SSW 20.4 km/h 20.4 km/h 49 % 0.0 mm 0.0 W/m2 CLR
22:40 20.0 °C 9.3 °C 1018.8 hPa SSW 31.5 km/h 31.5 km/h 50 % 0.0 mm 0.0 W/m2 CLR
22:45 20.0 °C 9.3 °C 1018.8 hPa SSW 25.9 km/h 25.9 km/h 50 % 0.0 mm 0.0 W/m2 CLR
22:50 20.0 °C 9.3 °C 1018.8 hPa SW 25.9 km/h 25.9 km/h 50 % 0.0 mm 0.0 W/m2 CLR
22:55 20.0 °C 9.6 °C 1018.8 hPa SSW 22.2 km/h 22.2 km/h 51 % 0.0 mm 0.0 W/m2 CLR
23:00 20.0 °C 9.6 °C 1018.8 hPa SSW 31.5 km/h 31.5 km/h 51 % 0.0 mm 0.0 W/m2 CLR
23:05 20.0 °C 9.3 °C 1018.8 hPa SSW 37.0 km/h 37.0 km/h 50 % 0.0 mm 0.0 W/m2 CLR
23:10 20.0 °C 9.3 °C 1018.8 hPa SSW 24.1 km/h 24.1 km/h 50 % 0.0 mm 0.0 W/m2 CLR
23:15 20.0 °C 9.3 °C 1019.2 hPa SSW 25.9 km/h 25.9 km/h 50 % 0.0 mm 0.0 W/m2 CLR
23:20 20.0 °C 9.6 °C 1019.2 hPa SSW 25.9 km/h 25.9 km/h 51 % 0.0 mm 0.0 W/m2 CLR
23:25 20.0 °C 9.8 °C 1019.2 hPa SSW 24.1 km/h 24.1 km/h 52 % 0.0 mm 0.0 W/m2 CLR
23:30 20.0 °C 9.8 °C 1019.2 hPa SSW 27.8 km/h 27.8 km/h 52 % 0.0 mm 0.0 W/m2 CLR
23:35 19.4 °C 9.3 °C 1019.2 hPa SSW 29.6 km/h 29.6 km/h 52 % 0.0 mm 0.0 W/m2 CLR
23:40 19.4 °C 9.6 °C 1019.2 hPa SSW 22.2 km/h 22.2 km/h 53 % 0.0 mm 0.0 W/m2 CLR
23:45 19.4 °C 9.6 °C 1019.2 hPa SW 24.1 km/h 24.1 km/h 53 % 0.0 mm 0.0 W/m2 CLR
23:50 19.4 °C 9.6 °C 1019.2 hPa SSW 29.6 km/h 29.6 km/h 53 % 0.0 mm 0.0 W/m2 CLR
23:55 19.4 °C 9.9 °C 1019.2 hPa SSW 25.9 km/h 25.9 km/h 54 % 0.0 mm 0.0 W/m2 CLR
Lo Temps de Massalio
Compliments of Weather Underground - 1.25 mb